createdAt,value
2023-02-14T00:03:17.630Z,22.30
2023-02-14T00:08:19.036Z,21.05
2023-02-14T00:13:20.453Z,17.02
2023-02-14T00:18:21.968Z,18.00
2023-02-14T00:23:23.396Z,19.08
2023-02-14T00:28:24.831Z,22.58
2023-02-14T00:33:26.343Z,19.45
2023-02-14T00:38:27.773Z,20.23
2023-02-14T00:43:29.457Z,18.42
2023-02-14T00:48:30.905Z,18.55
2023-02-14T00:53:32.365Z,21.55
2023-02-14T00:58:34.118Z,18.83
2023-02-14T01:03:36.139Z,15.98
2023-02-14T01:08:38.073Z,15.68
2023-02-14T01:13:40.605Z,15.07
2023-02-14T01:18:42.652Z,22.50
2023-02-14T01:23:45.271Z,17.60
2023-02-14T01:28:46.928Z,18.13
2023-02-14T01:33:49.759Z,23.00
2023-02-14T01:38:53.469Z,21.63
2023-02-14T01:44:02.305Z,20.90
2023-02-14T01:49:13.116Z,22.85
2023-02-14T01:54:15.008Z,25.77
2023-02-14T01:59:20.822Z,17.10
2023-02-14T02:04:30.427Z,22.67
2023-02-14T02:09:50.662Z,16.57
2023-02-14T02:14:55.418Z,15.85
2023-02-14T02:20:16.765Z,19.63
2023-02-14T02:25:47.423Z,15.50
2023-02-14T02:31:10.030Z,19.05
2023-02-14T02:36:11.448Z,14.77
2023-02-14T02:41:34.001Z,19.50
2023-02-14T02:46:48.348Z,15.18
2023-02-14T02:52:14.729Z,15.77
2023-02-14T02:57:23.708Z,16.85
2023-02-14T03:03:00.758Z,15.93
2023-02-14T03:08:03.898Z,20.58
2023-02-14T03:13:30.838Z,14.63
2023-02-14T03:19:14.413Z,17.05
2023-02-14T03:24:31.546Z,19.65
2023-02-14T03:29:50.483Z,15.85
2023-02-14T03:34:59.241Z,15.57
2023-02-14T03:40:13.295Z,15.88
2023-02-14T03:45:22.571Z,14.23
2023-02-14T03:50:25.475Z,19.83
2023-02-14T03:55:35.186Z,18.13
2023-02-14T04:00:41.043Z,18.77
2023-02-14T04:05:46.765Z,20.55
2023-02-14T04:10:49.059Z,14.88
2023-02-14T04:15:50.563Z,17.17
2023-02-14T04:20:52.153Z,24.02
2023-02-14T04:25:53.601Z,14.45
2023-02-14T04:30:55.377Z,16.52
2023-02-14T04:35:56.951Z,15.90
2023-02-14T04:40:58.605Z,19.13
2023-02-14T04:46:00.216Z,17.50
2023-02-14T04:51:01.872Z,13.90
2023-02-14T04:56:03.511Z,12.55
2023-02-14T05:01:05.025Z,15.25
2023-02-14T05:06:06.540Z,15.00
2023-02-14T05:11:07.988Z,13.10
2023-02-14T05:16:09.525Z,14.02
2023-02-14T05:21:11.566Z,12.82
2023-02-14T05:26:13.016Z,11.75
2023-02-14T05:31:14.694Z,13.57
2023-02-14T05:36:16.302Z,13.57
2023-02-14T05:41:17.987Z,16.27
2023-02-14T05:46:19.392Z,11.73
2023-02-14T05:51:20.798Z,16.10
2023-02-14T05:56:22.192Z,12.98
2023-02-14T06:01:23.647Z,14.15
2023-02-14T06:06:25.137Z,12.35
2023-02-14T06:11:26.558Z,13.77
2023-02-14T06:16:28.056Z,12.55
2023-02-14T06:21:29.538Z,14.88
2023-02-14T06:26:31.159Z,16.67
2023-02-14T06:31:32.820Z,13.57
2023-02-14T06:36:34.946Z,17.48
2023-02-14T06:41:36.854Z,14.57
2023-02-14T06:46:38.268Z,14.68
2023-02-14T06:51:39.728Z,12.30
2023-02-14T06:56:41.168Z,12.82
2023-02-14T07:01:42.851Z,13.75
2023-02-14T07:06:46.340Z,12.68
2023-02-14T07:11:48.104Z,13.05
2023-02-14T07:16:49.623Z,12.38
2023-02-14T07:21:51.151Z,12.43
2023-02-14T07:26:52.758Z,12.48
2023-02-14T07:31:54.531Z,14.18
2023-02-14T07:36:56.115Z,12.70
2023-02-14T07:41:57.611Z,12.35
2023-02-14T07:46:59.255Z,13.52
2023-02-14T07:52:01.054Z,13.48
2023-02-14T07:57:02.943Z,13.77
2023-02-14T08:02:04.492Z,15.18
2023-02-14T08:07:05.954Z,14.68
2023-02-14T08:12:26.163Z,13.50
2023-02-14T08:17:27.677Z,16.48
2023-02-14T08:22:29.162Z,14.55
2023-02-14T08:27:30.593Z,13.63
2023-02-14T08:32:32.318Z,13.98
2023-02-14T08:37:34.224Z,13.55
2023-02-14T08:42:35.813Z,16.15
2023-02-14T08:47:38.605Z,15.82
2023-02-14T08:52:41.613Z,14.27
2023-02-14T08:57:43.025Z,14.70
2023-02-14T09:02:44.541Z,14.77
2023-02-14T09:07:46.138Z,14.00
2023-02-14T09:12:47.691Z,11.15
2023-02-14T09:17:49.329Z,14.52
2023-02-14T09:22:51.071Z,14.27
2023-02-14T09:27:52.988Z,11.98
2023-02-14T09:32:54.589Z,11.80
2023-02-14T09:37:56.124Z,11.57
2023-02-14T09:43:31.152Z,12.02
2023-02-14T09:48:38.376Z,12.18
2023-02-14T09:53:53.744Z,13.98
2023-02-14T09:59:05.062Z,12.98
2023-02-14T10:04:30.181Z,15.02
2023-02-14T10:09:50.502Z,16.17
2023-02-14T10:14:56.158Z,15.23
2023-02-14T10:20:01.260Z,15.48
2023-02-14T10:25:36.670Z,16.17
2023-02-14T10:30:40.449Z,17.05
2023-02-14T10:36:00.644Z,19.52
2023-02-14T10:41:05.240Z,17.83
2023-02-14T10:46:22.351Z,18.52
2023-02-14T10:51:34.056Z,19.08
2023-02-14T10:56:43.379Z,20.33
2023-02-14T11:01:46.010Z,20.35
2023-02-14T11:06:49.340Z,16.70
2023-02-14T11:11:54.538Z,19.48
2023-02-14T11:16:57.776Z,17.27
2023-02-14T11:22:00.477Z,15.82
2023-02-14T11:27:03.617Z,19.25
2023-02-14T11:32:11.063Z,18.52
2023-02-14T11:37:21.735Z,19.13
2023-02-14T11:42:41.760Z,18.40
2023-02-14T11:47:43.299Z,16.65
2023-02-14T11:52:54.084Z,19.98
2023-02-14T11:57:57.653Z,18.85
2023-02-14T12:03:03.428Z,18.08
2023-02-14T12:08:08.172Z,17.90
2023-02-14T12:19:41.226Z,17.70
2023-02-14T12:24:58.647Z,20.05
2023-02-14T12:30:15.681Z,20.02
2023-02-14T12:35:42.169Z,19.50
2023-02-14T12:41:06.778Z,19.95
2023-02-14T12:46:30.935Z,19.23
2023-02-14T12:51:58.688Z,20.35
2023-02-14T12:57:12.705Z,20.17
2023-02-14T13:02:35.968Z,20.92
2023-02-14T13:08:10.247Z,16.95
2023-02-14T13:13:25.864Z,19.92
2023-02-14T13:18:36.211Z,21.63
2023-02-14T13:23:44.274Z,19.23
2023-02-14T13:29:01.918Z,19.17
2023-02-14T13:34:09.092Z,19.58
2023-02-14T13:39:18.344Z,19.40
2023-02-14T13:44:38.665Z,21.17
2023-02-14T13:49:48.927Z,20.52
2023-02-14T13:54:50.517Z,26.73
2023-02-14T14:00:17.041Z,23.80
2023-02-14T14:05:30.840Z,21.23
2023-02-14T14:10:55.484Z,22.48
2023-02-14T14:16:20.620Z,21.30
2023-02-14T14:21:30.787Z,21.63
2023-02-14T14:26:39.968Z,19.98
2023-02-14T14:31:41.825Z,21.92
2023-02-14T14:36:44.003Z,19.80
2023-02-14T14:41:45.475Z,22.20
2023-02-14T14:46:47.133Z,20.20
2023-02-14T14:51:49.142Z,20.42
2023-02-14T14:57:01.883Z,21.48
2023-02-14T15:02:21.813Z,23.65
2023-02-14T15:07:32.752Z,22.73
2023-02-14T15:12:53.763Z,22.92
2023-02-14T15:18:00.907Z,18.65
2023-02-14T15:23:05.275Z,19.77
2023-02-14T15:28:07.251Z,22.25
2023-02-14T15:33:14.538Z,18.23
2023-02-14T15:38:16.391Z,25.98
2023-02-14T15:43:18.384Z,22.75
2023-02-14T15:48:40.392Z,24.38
2023-02-14T15:53:51.218Z,25.40
2023-02-14T15:59:12.346Z,25.70
2023-02-14T16:04:13.991Z,26.83
2023-02-14T16:09:27.556Z,28.17
2023-02-14T16:14:32.391Z,28.05
2023-02-14T16:19:38.914Z,28.83
2023-02-14T16:24:42.045Z,29.30
2023-02-14T16:29:43.568Z,31.95
2023-02-14T16:34:47.455Z,29.63
2023-02-14T16:39:51.587Z,31.25
2023-02-14T16:44:53.561Z,34.28
2023-02-14T16:49:55.279Z,32.53
2023-02-14T16:54:57.304Z,32.40
2023-02-14T16:59:58.959Z,32.28
2023-02-14T17:05:00.511Z,35.22
2023-02-14T17:10:07.426Z,34.97
2023-02-14T17:15:15.169Z,34.63
2023-02-14T17:20:19.326Z,31.45
2023-02-14T17:25:21.072Z,29.83
2023-02-14T17:30:23.095Z,30.40
2023-02-14T17:35:24.603Z,46.42
2023-02-14T17:40:28.030Z,34.55
2023-02-14T17:45:29.653Z,35.90
2023-02-14T17:50:31.221Z,41.15
2023-02-14T17:55:35.693Z,36.53
2023-02-14T18:00:37.184Z,38.85
2023-02-14T18:05:38.647Z,39.67
2023-02-14T18:10:40.080Z,38.47
2023-02-14T18:15:41.501Z,40.28
2023-02-14T18:20:43.250Z,35.88
2023-02-14T18:25:50.420Z,37.15
2023-02-14T18:30:53.109Z,39.15
2023-02-14T18:35:54.572Z,34.42
2023-02-14T18:40:56.021Z,38.55
2023-02-14T18:46:06.121Z,58.03
2023-02-14T18:51:14.127Z,64.53
2023-02-14T18:56:18.660Z,56.47
2023-02-14T19:01:23.390Z,52.67
2023-02-14T19:06:25.805Z,52.13
2023-02-14T19:11:31.416Z,47.25
2023-02-14T19:16:34.059Z,47.20
2023-02-14T19:21:35.633Z,41.65
2023-02-14T19:26:40.606Z,45.08
2023-02-14T19:31:45.101Z,43.15
2023-02-14T19:36:48.045Z,45.90
2023-02-14T19:41:51.240Z,35.95
2023-02-14T19:46:56.671Z,45.97
2023-02-14T19:51:58.901Z,35.90
2023-02-14T19:57:00.311Z,42.15
2023-02-14T20:02:01.872Z,45.42
2023-02-14T20:07:04.860Z,35.75
2023-02-14T20:12:06.815Z,44.95
2023-02-14T20:17:08.291Z,41.80
2023-02-14T20:22:09.749Z,41.65
2023-02-14T20:27:11.970Z,33.83
2023-02-14T20:32:15.862Z,48.03
2023-02-14T20:37:17.864Z,37.60
2023-02-14T20:42:19.555Z,38.28
2023-02-14T20:47:21.119Z,33.20
2023-02-14T20:52:22.779Z,31.73
2023-02-14T20:57:25.309Z,33.40
2023-02-14T21:02:27.340Z,40.45
2023-02-14T21:07:31.244Z,36.15
2023-02-14T21:12:32.750Z,32.00
2023-02-14T21:17:34.214Z,34.53
2023-02-14T21:22:35.611Z,38.63
2023-02-14T21:27:38.282Z,32.67
2023-02-14T21:32:39.806Z,28.55
2023-02-14T21:37:41.431Z,29.23
2023-02-14T21:42:43.823Z,31.67
2023-02-14T21:48:05.495Z,33.17
2023-02-14T21:53:07.691Z,29.88
2023-02-14T21:58:09.111Z,33.08
2023-02-14T22:03:12.330Z,33.20
2023-02-14T22:08:15.413Z,31.48
2023-02-14T22:13:16.845Z,32.70
2023-02-14T22:18:18.812Z,30.75
2023-02-14T22:23:21.112Z,32.83
2023-02-14T22:28:23.105Z,36.28
2023-02-14T22:33:24.578Z,34.72
2023-02-14T22:38:26.657Z,33.65
2023-02-14T22:43:28.732Z,33.13
2023-02-14T22:48:32.412Z,35.65
2023-02-14T22:53:35.117Z,31.73
2023-02-14T22:58:37.067Z,27.45
2023-02-14T23:03:38.580Z,33.53
2023-02-14T23:08:45.601Z,34.25
2023-02-14T23:14:21.151Z,30.60
2023-02-14T23:19:47.328Z,29.40
2023-02-14T23:24:50.330Z,33.50
2023-02-14T23:29:51.879Z,35.72
2023-02-14T23:34:53.876Z,29.33
2023-02-14T23:39:55.582Z,28.17
2023-02-14T23:45:17.444Z,35.90
2023-02-14T23:50:19.168Z,29.17
2023-02-14T23:55:22.258Z,28.38
